POGODA: Poland

Lotnisko: Gdansk-Rebiechowo

METAR KOD: EPGD


METAR: EPGD 011800Z 06007KT 030V090 CAVOK 14/11 Q1020


BLOK
Pogoda METAR
011800Z
Dzien: 01, Godzina: 18:00 UTC.
06007KT
Wiatr z kierunku 060, o predkosci 13 km/h
030V090
Wiatr zmienny pomiedzy 030 i 090
CAVOK
Widzialnosc pow. 10 km, brak chmur pon. 1500 m., brak CB, brak opadow, burz i innych
14/11
Temperatura: powietrze 14°C, punkt rosy 11°C . Wilgotnosc wzgledna 79 %
Q1020
Cisnienie: 1020 hPa

Pogoda na innym lotnisku

Pogoda Gdansk-Rebiechowo WEATHER Poland  
Pogoda Katowice WEATHER Poland  
Pogoda Krakow WEATHER Poland  
Pogoda Poznan WEATHER Poland  
Pogoda Rzeszow-Jasionka WEATHER Poland  
Pogoda Szczecin WEATHER Poland  
Pogoda Warszawa-Okecie WEATHER Poland  
Pogoda Wroclaw Ii WEATHER Poland  

Pogoda w inny kraju

Strona startowa

(C) by GREGOR 2007
Ogłoszenia Towarzyskie